Time;durP1;ratioP1;P1;durP2;ratioP2;P2;SDS_P1;SDS_P2;PMS_P1;PMS_P2;Temp;Humidity;BMP_temperature;BMP_pressure;BME280_temperature;BME280_humidity;BME280_pressure;Samples;Min_cycle;Max_cycle;Signal;HPM_P1;HPM_P2
2021/10/03 00:00:20;;;;;;;4.53;3.22;;;17.70;99.90;;;;;;5012316;28;20520;-91
2021/10/03 00:02:49;;;;;;;4.75;3.70;;;17.60;99.90;;;;;;5020106;28;20174;-90
2021/10/03 00:05:18;;;;;;;7.70;3.78;;;17.70;99.90;;;;;;5020114;28;20178;-90
2021/10/03 00:07:55;;;;;;;6.05;3.67;;;17.60;99.90;;;;;;5020098;28;20175;-91
2021/10/03 00:10:29;;;;;;;5.82;3.92;;;17.70;99.90;;;;;;5019785;28;20181;-90
2021/10/03 00:13:08;;;;;;;7.90;3.80;;;17.70;99.90;;;;;;5019617;28;20177;-91
2021/10/03 00:15:47;;;;;;;5.50;3.70;;;17.70;99.90;;;;;;5036335;28;20194;-91
2021/10/03 00:18:23;;;;;;;5.40;3.78;;;17.70;99.90;;;;;;5019638;28;20222;-91
2021/10/03 00:20:53;;;;;;;5.65;3.80;;;17.70;99.90;;;;;;5019139;28;20241;-89
2021/10/03 00:23:23;;;;;;;4.72;3.75;;;17.70;99.90;;;;;;5019165;28;20178;-91
2021/10/03 00:25:49;;;;;;;5.75;3.75;;;17.70;99.90;;;;;;5019235;28;20174;-91
2021/10/03 00:28:27;;;;;;;3.75;3.40;;;17.80;99.90;;;;;;5019802;28;20199;-91
2021/10/03 00:30:56;;;;;;;5.20;3.40;;;17.80;99.90;;;;;;5019279;28;20206;-91
2021/10/03 00:33:23;;;;;;;5.88;3.67;;;17.70;99.90;;;;;;5402575;23;20234;-94
2021/10/03 00:35:49;;;;;;;3.85;3.35;;;17.80;99.90;;;;;;5033925;28;20274;-94
2021/10/03 00:38:17;;;;;;;4.57;3.40;;;17.80;99.90;;;;;;5035402;28;20656;-93
2021/10/03 00:40:43;;;;;;;5.05;3.72;;;17.70;99.90;;;;;;5023965;28;20183;-92
2021/10/03 00:43:11;;;;;;;4.13;3.40;;;17.70;99.90;;;;;;5015978;28;20183;-95
2021/10/03 00:45:38;;;;;;;6.50;4.05;;;17.70;99.90;;;;;;5016026;28;20179;-95
2021/10/03 00:48:05;;;;;;;5.32;3.70;;;17.70;99.90;;;;;;5018642;28;20471;-96
2021/10/03 00:50:34;;;;;;;4.43;3.40;;;17.70;99.90;;;;;;5019813;28;20183;-94
2021/10/03 00:53:01;;;;;;;5.63;3.50;;;17.70;99.90;;;;;;5020512;28;20192;-96
2021/10/03 00:55:28;;;;;;;4.93;3.25;;;17.70;99.90;;;;;;5025801;28;20614;-96
2021/10/03 00:57:56;;;;;;;6.50;3.72;;;17.70;99.90;;;;;;5018384;28;20175;-96
2021/10/03 01:00:25;;;;;;;4.53;3.60;;;17.70;99.90;;;;;;5033998;28;20210;-96
2021/10/03 01:02:53;;;;;;;6.63;3.50;;;17.70;99.90;;;;;;5037905;28;20214;-94
2021/10/03 01:05:18;;;;;;;5.93;3.33;;;17.70;99.90;;;;;;5038839;28;20175;-95
2021/10/03 01:07:44;;;;;;;3.55;3.20;;;17.60;99.90;;;;;;5037855;28;20259;-94
2021/10/03 01:10:17;;;;;;;3.65;3.10;;;17.70;99.90;;;;;;5039159;28;20605;-95
2021/10/03 01:12:48;;;;;;;4.07;3.25;;;17.60;99.90;;;;;;5030112;28;20210;-96
2021/10/03 01:15:16;;;;;;;6.50;3.47;;;17.70;99.90;;;;;;5019274;28;20302;-95
2021/10/03 01:17:41;;;;;;;7.35;3.70;;;17.60;99.90;;;;;;5017068;28;20663;-95
2021/10/03 01:20:08;;;;;;;5.72;3.28;;;17.70;99.90;;;;;;5017345;28;20278;-94
2021/10/03 01:22:39;;;;;;;3.80;3.00;;;17.60;99.90;;;;;;5018729;28;20580;-96
2021/10/03 01:25:09;;;;;;;5.18;3.50;;;17.60;99.90;;;;;;5018193;28;20688;-94
2021/10/03 01:27:37;;;;;;;6.28;3.45;;;17.70;99.90;;;;;;5036299;28;20177;-96
2021/10/03 01:30:12;;;;;;;3.60;3.30;;;17.60;99.90;;;;;;5037595;28;20185;-96
2021/10/03 01:32:46;;;;;;;4.70;3.30;;;17.60;99.90;;;;;;5026726;28;20190;-94
2021/10/03 01:35:13;;;;;;;5.38;3.38;;;17.70;99.90;;;;;;5022642;28;20214;-96
2021/10/03 01:37:40;;;;;;;6.50;3.08;;;17.70;99.90;;;;;;5022584;28;20170;-96
2021/10/03 01:40:08;;;;;;;4.90;2.83;;;17.80;99.90;;;;;;5021298;28;20201;-95
2021/10/03 01:42:36;;;;;;;6.22;2.90;;;17.70;99.90;;;;;;5037851;28;20261;-95
2021/10/03 01:45:04;;;;;;;3.35;2.95;;;17.80;99.90;;;;;;5020203;28;20185;-95
2021/10/03 01:47:30;;;;;;;3.97;3.30;;;17.80;99.90;;;;;;5019680;28;20176;-94
2021/10/03 01:49:57;;;;;;;4.93;2.92;;;17.80;99.90;;;;;;5021294;28;20178;-96
2021/10/03 01:52:23;;;;;;;4.63;3.38;;;17.80;99.90;;;;;;5019944;28;20547;-96
2021/10/03 01:54:51;;;;;;;8.52;3.05;;;17.70;99.90;;;;;;5018829;28;20301;-95
2021/10/03 01:57:17;;;;;;;4.18;3.15;;;17.70;99.90;;;;;;5020195;28;20237;-94
2021/10/03 01:59:43;;;;;;;4.28;3.08;;;17.80;99.90;;;;;;5019481;28;20229;-94
2021/10/03 02:02:09;;;;;;;5.38;2.92;;;17.70;99.90;;;;;;5020522;28;20201;-95
2021/10/03 02:04:36;;;;;;;5.07;3.15;;;17.80;99.90;;;;;;5019877;28;20210;-96
2021/10/03 02:07:02;;;;;;;4.00;2.78;;;17.80;99.90;;;;;;5021371;28;20225;-96
2021/10/03 02:09:28;;;;;;;5.13;2.60;;;17.80;99.90;;;;;;5017645;28;20241;-94
2021/10/03 02:11:57;;;;;;;3.10;2.80;;;17.80;99.90;;;;;;5018692;28;20213;-94
2021/10/03 02:14:27;;;;;;;4.57;2.90;;;17.80;99.90;;;;;;5002647;28;20240;-96
2021/10/03 02:17:00;;;;;;;4.30;2.88;;;17.90;99.90;;;;;;5019660;28;20190;-96
2021/10/03 02:19:30;;;;;;;4.78;2.90;;;17.90;99.90;;;;;;5004241;28;20179;-95
2021/10/03 02:21:57;;;;;;;8.18;2.78;;;17.90;99.90;;;;;;5021364;28;20186;-96
2021/10/03 02:24:23;;;;;;;4.45;3.28;;;17.80;99.90;;;;;;5020953;28;20182;-95
2021/10/03 02:26:50;;;;;;;3.42;2.92;;;17.90;99.90;;;;;;5019680;28;20181;-96
2021/10/03 02:29:18;;;;;;;3.10;2.45;;;17.80;99.90;;;;;;5021188;28;20600;-94
2021/10/03 02:31:44;;;;;;;3.53;2.97;;;17.90;99.90;;;;;;5020465;28;20570;-94
2021/10/03 02:34:12;;;;;;;5.65;2.88;;;17.80;99.90;;;;;;5030020;28;20549;-95
2021/10/03 02:36:41;;;;;;;4.63;2.53;;;17.90;99.90;;;;;;5030320;28;20185;-96
2021/10/03 02:39:07;;;;;;;6.15;2.85;;;17.90;99.90;;;;;;5056189;28;20170;-96
2021/10/03 02:41:34;;;;;;;4.43;2.80;;;17.90;99.90;;;;;;5057741;28;20249;-95
2021/10/03 02:44:02;;;;;;;5.53;2.80;;;17.90;99.90;;;;;;5040383;28;20187;-96
2021/10/03 02:46:32;;;;;;;2.67;2.47;;;17.90;99.90;;;;;;5036069;28;20174;-96
2021/10/03 02:49:00;;;;;;;4.55;2.80;;;17.90;99.90;;;;;;5035402;28;20182;-96
2021/10/03 02:51:27;;;;;;;3.35;2.60;;;17.80;99.90;;;;;;5035713;28;20261;-96
2021/10/03 02:53:55;;;;;;;2.97;2.50;;;17.80;99.90;;;;;;5037423;28;20199;-95
2021/10/03 02:56:32;;;;;;;6.28;2.70;;;17.80;99.90;;;;;;5032601;28;20192;-96
2021/10/03 02:59:03;;;;;;;3.33;2.83;;;17.80;99.90;;;;;;5036466;28;20175;-96
2021/10/03 03:01:29;;;;;;;5.35;2.78;;;17.80;99.90;;;;;;5038570;28;20601;-95
2021/10/03 03:04:04;;;;;;;6.00;2.50;;;17.90;99.90;;;;;;5037112;28;20189;-95
2021/10/03 03:06:35;;;;;;;3.10;2.30;;;17.90;99.90;;;;;;5037157;28;20169;-96
2021/10/03 03:09:01;;;;;;;2.58;2.38;;;17.90;99.90;;;;;;5036084;28;20268;-94
2021/10/03 03:11:30;;;;;;;5.07;2.50;;;17.90;99.90;;;;;;5036775;28;20209;-95
2021/10/03 03:13:59;;;;;;;3.33;2.65;;;17.80;99.90;;;;;;5036674;28;20556;-94
2021/10/03 03:16:25;;;;;;;6.20;2.60;;;17.90;99.90;;;;;;5036303;28;20202;-94
2021/10/03 03:18:51;;;;;;;3.53;2.55;;;17.90;99.90;;;;;;5036329;28;20174;-95
2021/10/03 03:21:20;;;;;;;2.92;2.50;;;18.00;99.90;;;;;;5037053;28;20233;-94
2021/10/03 03:23:46;;;;;;;3.42;2.60;;;18.00;99.90;;;;;;5037019;28;20728;-94
2021/10/03 03:26:14;;;;;;;3.92;2.70;;;18.00;99.90;;;;;;5037049;28;20175;-95
2021/10/03 03:28:40;;;;;;;2.63;2.42;;;18.00;99.90;;;;;;5046538;28;20580;-95
2021/10/03 03:31:06;;;;;;;3.30;2.70;;;18.00;99.90;;;;;;5056705;28;20273;-94
2021/10/03 03:33:33;;;;;;;3.58;2.60;;;18.00;99.90;;;;;;5055616;28;20234;-94
2021/10/03 03:36:02;;;;;;;3.50;2.50;;;18.10;99.90;;;;;;5041714;28;20190;-96
2021/10/03 03:38:33;;;;;;;5.30;2.70;;;18.00;99.90;;;;;;5007526;28;20246;-96
2021/10/03 03:41:05;;;;;;;3.85;2.28;;;18.10;99.90;;;;;;5039234;28;20210;-95
2021/10/03 03:43:32;;;;;;;3.50;2.35;;;18.00;99.90;;;;;;5038068;28;20190;-95
2021/10/03 03:45:58;;;;;;;3.50;2.58;;;18.00;99.90;;;;;;5042302;28;20224;-96
2021/10/03 03:48:23;;;;;;;3.47;2.83;;;18.00;99.90;;;;;;5047611;28;20630;-95
2021/10/03 03:50:49;;;;;;;4.18;2.95;;;18.00;99.90;;;;;;5056240;28;20205;-95
2021/10/03 03:53:15;;;;;;;3.05;2.45;;;18.00;99.90;;;;;;5055955;28;20257;-94
2021/10/03 03:55:41;;;;;;;5.85;2.50;;;18.00;99.90;;;;;;5055414;28;20273;-96
2021/10/03 03:58:07;;;;;;;4.53;2.28;;;18.00;99.90;;;;;;5057368;28;20181;-93
2021/10/03 04:00:34;;;;;;;3.88;2.60;;;18.00;99.90;;;;;;5054910;28;20185;-95
2021/10/03 04:03:03;;;;;;;4.03;2.58;;;18.10;99.90;;;;;;5037355;28;20178;-94
2021/10/03 04:05:29;;;;;;;5.95;2.60;;;18.10;99.90;;;;;;5037987;28;20178;-94
2021/10/03 04:07:56;;;;;;;3.47;2.70;;;18.20;99.90;;;;;;5037221;28;20198;-94
2021/10/03 04:10:22;;;;;;;3.33;2.42;;;18.20;99.90;;;;;;5037206;28;20171;-94
2021/10/03 04:12:47;;;;;;;3.95;2.60;;;18.20;99.90;;;;;;5038062;28;20189;-94
2021/10/03 04:15:13;;;;;;;2.50;2.30;;;18.20;99.90;;;;;;5035775;28;20702;-94
2021/10/03 04:17:42;;;;;;;4.30;2.70;;;18.20;99.90;;;;;;5036617;28;20182;-95
2021/10/03 04:20:12;;;;;;;4.05;2.28;;;18.20;99.90;;;;;;5037026;28;20183;-96
2021/10/03 04:22:37;;;;;;;2.63;2.35;;;18.20;99.90;;;;;;5037624;28;20182;-95
2021/10/03 04:25:04;;;;;;;3.65;2.60;;;18.30;99.90;;;;;;5039139;28;20194;-96
2021/10/03 04:27:31;;;;;;;5.25;2.92;;;18.30;99.90;;;;;;5039924;28;20182;-95
2021/10/03 04:29:57;;;;;;;3.30;2.40;;;18.30;99.90;;;;;;5058967;28;20176;-95
2021/10/03 04:32:22;;;;;;;3.03;2.40;;;18.30;99.90;;;;;;5059410;28;20275;-96
2021/10/03 04:34:49;;;;;;;4.05;2.50;;;18.30;99.90;;;;;;5052875;28;20230;-96
2021/10/03 04:37:15;;;;;;;2.83;2.20;;;18.30;99.90;;;;;;5039090;28;20260;-96
2021/10/03 04:39:43;;;;;;;3.65;2.55;;;18.30;99.90;;;;;;5038090;28;20617;-96
2021/10/03 04:42:09;;;;;;;3.92;2.85;;;18.30;99.90;;;;;;5037415;28;20269;-94
2021/10/03 04:44:35;;;;;;;6.53;2.60;;;18.30;99.90;;;;;;5038511;28;20193;-95
2021/10/03 04:47:01;;;;;;;3.53;2.78;;;18.30;99.90;;;;;;5035396;28;20178;-96
2021/10/03 04:49:27;;;;;;;4.47;2.53;;;18.30;99.90;;;;;;5019776;28;20275;-94
2021/10/03 04:51:53;;;;;;;3.63;2.75;;;18.20;99.90;;;;;;5036086;28;20210;-93
2021/10/03 04:54:21;;;;;;;3.72;2.70;;;18.20;99.90;;;;;;5035221;28;20319;-96
2021/10/03 04:56:47;;;;;;;3.10;2.60;;;18.20;99.90;;;;;;5037832;28;20185;-95
2021/10/03 04:59:14;;;;;;;3.70;2.63;;;18.20;99.90;;;;;;5038279;28;20175;-94
2021/10/03 05:01:40;;;;;;;4.72;2.75;;;18.30;99.90;;;;;;5036114;28;20182;-96
2021/10/03 05:04:06;;;;;;;2.75;2.53;;;18.30;99.90;;;;;;5036134;28;20179;-96
2021/10/03 05:06:31;;;;;;;3.47;2.65;;;18.30;99.90;;;;;;5043991;28;20184;-96
2021/10/03 05:08:57;;;;;;;2.92;2.45;;;18.30;99.90;;;;;;5057364;28;20188;-95
2021/10/03 05:11:28;;;;;;;4.07;2.40;;;18.30;99.90;;;;;;5056374;28;20177;-95
2021/10/03 05:13:54;;;;;;;3.88;2.63;;;18.40;99.90;;;;;;5045084;28;20214;-96
2021/10/03 05:16:21;;;;;;;3.30;2.50;;;18.40;99.90;;;;;;5039764;28;20179;-96
2021/10/03 05:18:47;;;;;;;4.55;2.35;;;18.40;99.90;;;;;;5037786;28;20197;-96
2021/10/03 05:21:13;;;;;;;3.35;2.55;;;18.50;99.90;;;;;;5037675;28;20182;-96
2021/10/03 05:23:39;;;;;;;3.75;2.55;;;18.50;99.90;;;;;;5036269;28;20175;-94
2021/10/03 05:26:05;;;;;;;5.35;2.90;;;18.50;99.90;;;;;;5040519;28;20233;-95
2021/10/03 05:28:30;;;;;;;4.25;2.45;;;18.60;99.90;;;;;;5058216;28;20184;-96
2021/10/03 05:30:56;;;;;;;3.55;2.67;;;18.60;99.90;;;;;;5057729;28;20182;-96
2021/10/03 05:33:23;;;;;;;4.57;2.25;;;18.70;99.90;;;;;;5056327;28;20221;-96
2021/10/03 05:35:52;;;;;;;3.38;2.60;;;18.70;99.90;;;;;;5060082;28;20578;-96
2021/10/03 05:38:18;;;;;;;2.83;2.22;;;18.70;99.90;;;;;;5057692;28;20503;-94
2021/10/03 05:40:43;;;;;;;3.90;2.70;;;18.80;99.90;;;;;;5039518;28;20309;-95
2021/10/03 05:43:09;;;;;;;2.72;2.17;;;18.80;99.90;;;;;;5035040;28;20500;-95
2021/10/03 05:45:35;;;;;;;3.30;2.67;;;18.70;99.90;;;;;;5040082;28;20235;-96
2021/10/03 05:48:01;;;;;;;3.30;2.40;;;18.70;99.90;;;;;;5054827;28;20242;-96
2021/10/03 05:50:27;;;;;;;4.88;2.20;;;18.50;99.90;;;;;;5055628;28;20178;-96
2021/10/03 05:52:55;;;;;;;3.33;2.20;;;18.40;99.90;;;;;;5041789;28;20186;-96
2021/10/03 05:55:21;;;;;;;3.55;2.13;;;18.20;99.90;;;;;;5035957;28;20683;-95
2021/10/03 05:57:55;;;;;;;3.17;2.40;;;18.10;99.90;;;;;;5034479;28;20178;-96
2021/10/03 06:00:21;;;;;;;4.07;2.20;;;18.00;99.90;;;;;;5034929;28;20202;-95
2021/10/03 06:02:47;;;;;;;3.72;2.55;;;17.90;99.90;;;;;;5036580;28;20232;-96
2021/10/03 06:05:13;;;;;;;2.65;2.20;;;17.80;99.90;;;;;;5034870;28;20178;-94
2021/10/03 06:07:39;;;;;;;2.65;2.40;;;17.80;99.90;;;;;;5037198;28;20266;-96
2021/10/03 06:10:07;;;;;;;3.35;2.50;;;17.70;99.90;;;;;;5033933;28;20221;-96
2021/10/03 06:12:33;;;;;;;3.55;2.38;;;17.60;99.90;;;;;;5036032;28;20190;-95
2021/10/03 06:14:59;;;;;;;5.65;2.80;;;17.60;99.90;;;;;;5035389;28;20229;-95
2021/10/03 06:17:25;;;;;;;7.03;2.53;;;17.60;99.90;;;;;;5035234;28;20656;-96
2021/10/03 06:19:53;;;;;;;4.25;2.60;;;17.60;99.90;;;;;;5036088;28;20201;-95
2021/10/03 06:22:22;;;;;;;4.40;2.38;;;17.50;99.90;;;;;;5034094;28;20589;-95
2021/10/03 06:24:48;;;;;;;3.05;2.42;;;17.60;99.90;;;;;;5033809;28;20187;-96
2021/10/03 06:27:14;;;;;;;3.00;2.35;;;17.60;99.90;;;;;;5034359;28;20236;-95
2021/10/03 06:29:43;;;;;;;7.18;2.60;;;17.60;99.90;;;;;;5034668;28;20185;-96
2021/10/03 06:32:08;;;;;;;2.65;2.08;;;17.60;99.90;;;;;;5044875;28;20185;-95
2021/10/03 06:34:34;;;;;;;4.93;2.40;;;17.60;99.90;;;;;;5059001;28;20232;-96
2021/10/03 06:37:00;;;;;;;3.17;2.30;;;17.70;99.90;;;;;;5058318;28;20181;-95
2021/10/03 06:39:26;;;;;;;2.75;2.30;;;17.70;99.90;;;;;;5075854;28;20180;-96
2021/10/03 06:41:52;;;;;;;3.30;2.45;;;17.60;99.90;;;;;;5079248;28;20260;-96
2021/10/03 06:44:20;;;;;;;3.25;2.30;;;17.70;99.90;;;;;;5074254;28;20173;-96
2021/10/03 06:46:49;;;;;;;6.05;2.60;;;17.70;99.90;;;;;;5037994;28;20265;-95
2021/10/03 06:49:16;;;;;;;2.72;2.33;;;17.70;99.90;;;;;;5038537;28;20182;-94
2021/10/03 06:51:43;;;;;;;3.17;2.25;;;17.70;99.90;;;;;;5046667;28;20608;-95
2021/10/03 06:54:10;;;;;;;4.78;2.65;;;17.60;99.90;;;;;;5059405;28;20300;-94
2021/10/03 06:56:37;;;;;;;2.45;2.10;;;17.70;99.90;;;;;;5059405;28;20217;-96
2021/10/03 06:59:03;;;;;;;4.80;2.50;;;17.70;99.90;;;;;;5042916;28;20178;-94
2021/10/03 07:01:32;;;;;;;6.43;2.40;;;17.70;99.90;;;;;;5038837;28;20261;-96
2021/10/03 07:03:58;;;;;;;4.13;2.17;;;17.70;99.90;;;;;;5039726;28;20626;-93
2021/10/03 07:06:26;;;;;;;4.30;2.20;;;17.70;99.90;;;;;;5037628;28;20271;-94
2021/10/03 07:08:52;;;;;;;3.72;2.22;;;17.70;99.90;;;;;;5038913;28;20175;-95
2021/10/03 07:11:18;;;;;;;3.70;2.90;;;17.60;99.90;;;;;;5036983;28;20552;-93
2021/10/03 07:13:44;;;;;;;3.97;2.38;;;17.60;99.90;;;;;;5039459;28;20355;-95
2021/10/03 07:16:10;;;;;;;3.75;2.15;;;17.70;99.90;;;;;;5038936;28;20183;-96
2021/10/03 07:18:35;;;;;;;3.17;2.30;;;17.70;99.90;;;;;;5036811;28;20184;-95
2021/10/03 07:21:03;;;;;;;4.75;2.33;;;17.70;99.90;;;;;;5037968;28;20175;-95
2021/10/03 07:23:30;;;;;;;3.40;2.60;;;17.70;99.90;;;;;;5038073;28;20185;-95
2021/10/03 07:25:59;;;;;;;3.72;2.55;;;17.80;99.90;;;;;;5036432;28;20210;-96
2021/10/03 07:28:25;;;;;;;5.68;2.78;;;17.90;99.90;;;;;;5037674;28;20202;-95
2021/10/03 07:30:51;;;;;;;7.28;2.58;;;17.80;99.90;;;;;;5036848;28;20595;-94
2021/10/03 07:33:20;;;;;;;4.03;2.55;;;17.80;99.90;;;;;;5036958;28;20230;-95
2021/10/03 07:35:51;;;;;;;3.45;2.75;;;17.70;99.90;;;;;;5036759;28;20278;-95
2021/10/03 07:38:17;;;;;;;3.30;2.67;;;17.80;99.90;;;;;;5036000;28;20179;-95
2021/10/03 07:40:44;;;;;;;2.33;2.05;;;17.70;99.90;;;;;;5036714;28;20182;-94
2021/10/03 07:43:10;;;;;;;3.08;2.60;;;17.70;99.90;;;;;;5037142;28;20178;-95
2021/10/03 07:45:36;;;;;;;5.53;2.70;;;17.70;99.90;;;;;;5035908;28;20511;-96
2021/10/03 07:48:03;;;;;;;3.75;2.67;;;17.70;99.90;;;;;;5038748;28;20205;-94
2021/10/03 07:50:29;;;;;;;4.68;2.45;;;17.70;99.90;;;;;;5038975;28;20175;-95
2021/10/03 07:52:55;;;;;;;3.88;2.53;;;17.70;99.90;;;;;;5037938;28;20190;-95
2021/10/03 07:55:28;;;;;;;3.72;2.80;;;17.70;99.90;;;;;;5046794;28;20201;-94
2021/10/03 07:58:07;;;;;;;3.13;2.70;;;17.70;99.90;;;;;;5046289;28;20174;-94
2021/10/03 08:00:35;;;;;;;3.58;2.35;;;17.70;99.90;;;;;;5053338;28;20170;-95
2021/10/03 08:03:02;;;;;;;4.05;2.80;;;17.70;99.90;;;;;;5056735;28;20169;-93
2021/10/03 08:05:30;;;;;;;4.32;2.53;;;17.70;99.90;;;;;;5038893;28;20175;-96
2021/10/03 08:07:59;;;;;;;2.55;2.35;;;17.70;99.90;;;;;;5036034;28;20186;-96
2021/10/03 08:10:27;;;;;;;3.53;2.80;;;17.70;99.90;;;;;;5055079;28;20192;-96
2021/10/03 08:12:52;;;;;;;6.05;2.58;;;17.80;99.90;;;;;;5051762;28;20178;-95
2021/10/03 08:15:19;;;;;;;3.10;2.70;;;17.80;99.90;;;;;;5045794;28;20209;-96
2021/10/03 08:17:48;;;;;;;3.55;2.67;;;17.80;99.90;;;;;;5053268;28;20178;-95
2021/10/03 08:20:13;;;;;;;5.32;2.55;;;17.90;99.90;;;;;;5037683;28;20175;-95
2021/10/03 08:22:45;;;;;;;4.43;2.60;;;17.90;99.90;;;;;;5041101;28;20170;-95
2021/10/03 08:25:14;;;;;;;5.10;2.47;;;18.00;99.90;;;;;;5061785;28;20190;-95
2021/10/03 08:27:44;;;;;;;3.65;2.65;;;18.00;99.90;;;;;;5062149;28;20189;-96
2021/10/03 08:30:13;;;;;;;4.45;2.67;;;18.10;99.90;;;;;;5055807;28;20178;-95
2021/10/03 08:32:45;;;;;;;3.67;2.67;;;18.10;99.90;;;;;;5043238;28;20171;-96
2021/10/03 08:35:13;;;;;;;5.15;2.58;;;18.20;99.90;;;;;;5022767;28;20233;-94
2021/10/03 08:37:39;;;;;;;4.60;2.60;;;18.30;99.90;;;;;;5024608;28;20282;-95
2021/10/03 08:40:08;;;;;;;3.25;2.63;;;18.30;99.90;;;;;;5050031;23;20720;-91
2021/10/03 08:42:37;;;;;;;3.65;2.78;;;18.30;99.90;;;;;;5037854;28;20174;-91
2021/10/03 08:45:20;;;;;;;3.35;2.63;;;18.40;99.90;;;;;;5038028;28;20177;-92
2021/10/03 08:47:46;;;;;;;5.38;2.60;;;18.50;99.90;;;;;;5036917;28;20177;-92
2021/10/03 08:50:47;;;;;;;4.55;2.50;;;18.50;99.90;;;;;;5017716;28;20174;-92
2021/10/03 08:53:22;;;;;;;4.90;2.65;;;18.50;99.90;;;;;;5034360;28;20650;-91
2021/10/03 08:55:49;;;;;;;3.72;2.55;;;18.60;99.90;;;;;;5017385;28;20210;-92
2021/10/03 08:58:17;;;;;;;3.35;2.53;;;18.60;99.90;;;;;;4997553;28;20228;-93
2021/10/03 09:00:49;;;;;;;3.72;2.80;;;18.60;99.90;;;;;;5013453;28;20179;-92
2021/10/03 09:03:17;;;;;;;3.60;2.50;;;18.50;99.90;;;;;;5014982;28;20194;-91
2021/10/03 09:05:55;;;;;;;3.25;2.88;;;18.50;99.90;;;;;;4998648;28;20194;-90
2021/10/03 09:08:21;;;;;;;3.67;2.63;;;18.40;99.90;;;;;;5001202;28;20592;-91
2021/10/03 09:11:14;;;;;;;8.00;2.72;;;18.40;99.90;;;;;;5014252;28;20180;-91
2021/10/03 09:13:55;;;;;;;4.55;2.60;;;18.40;99.90;;;;;;5014022;28;20190;-93
2021/10/03 09:16:29;;;;;;;3.78;2.80;;;18.40;99.90;;;;;;5014461;28;20525;-92
2021/10/03 09:19:33;;;;;;;3.30;2.70;;;18.40;99.90;;;;;;5014117;28;20194;-92
2021/10/03 09:22:17;;;;;;;4.53;2.70;;;18.40;99.90;;;;;;5014020;28;20556;-91
2021/10/03 09:24:47;;;;;;;3.05;2.60;;;18.30;99.90;;;;;;4997776;28;20178;-93
2021/10/03 09:27:13;;;;;;;4.40;2.83;;;18.30;99.90;;;;;;5014700;28;20183;-92
2021/10/03 09:29:41;;;;;;;6.32;2.67;;;18.30;99.90;;;;;;5015343;28;20203;-91
2021/10/03 09:32:18;;;;;;;5.38;2.60;;;18.30;99.90;;;;;;5000045;28;20262;-93
2021/10/03 09:34:49;;;;;;;6.43;2.92;;;18.40;99.90;;;;;;4998283;28;20194;-90
2021/10/03 09:37:22;;;;;;;4.35;2.78;;;18.30;99.90;;;;;;5015103;28;20673;-92
2021/10/03 09:40:16;;;;;;;3.40;2.97;;;18.40;99.90;;;;;;5013559;28;20226;-92
2021/10/03 09:42:52;;;;;;;3.08;2.78;;;18.30;99.90;;;;;;5016496;28;20654;-92
2021/10/03 09:45:24;;;;;;;4.15;2.85;;;18.30;99.90;;;;;;5014150;28;20186;-92
2021/10/03 09:48:07;;;;;;;3.70;2.40;;;18.40;99.90;;;;;;5013812;28;20179;-92
2021/10/03 09:50:40;;;;;;;4.15;2.75;;;18.40;99.90;;;;;;4997242;28;20210;-93
2021/10/03 09:53:07;;;;;;;2.90;2.50;;;18.40;99.90;;;;;;4997638;28;20627;-91
2021/10/03 09:55:43;;;;;;;3.83;2.70;;;18.50;99.90;;;;;;4997497;28;20794;-92
2021/10/03 09:58:34;;;;;;;5.32;2.45;;;18.50;99.90;;;;;;4997232;28;20285;-92
2021/10/03 10:01:00;;;;;;;4.97;2.70;;;18.50;99.90;;;;;;5013673;28;20175;-92
2021/10/03 10:03:26;;;;;;;4.97;2.42;;;18.60;99.90;;;;;;5013480;28;20171;-91
2021/10/03 10:06:12;;;;;;;8.43;3.03;;;18.70;99.90;;;;;;4997509;28;20195;-92
2021/10/03 10:08:53;;;;;;;3.67;2.30;;;18.70;99.90;;;;;;5012958;28;20213;-92
2021/10/03 10:11:44;;;;;;;3.78;2.47;;;18.80;99.90;;;;;;4995909;28;20186;-92
2021/10/03 10:14:12;;;;;;;2.83;2.42;;;18.90;99.90;;;;;;4997090;28;20195;-91
2021/10/03 10:16:47;;;;;;;3.88;2.45;;;18.90;99.90;;;;;;4997171;28;20178;-91
2021/10/03 10:19:43;;;;;;;2.83;2.50;;;19.10;99.90;;;;;;4995810;28;20689;-92
2021/10/03 10:22:12;;;;;;;3.17;2.22;;;19.10;99.90;;;;;;4997066;28;20167;-92
2021/10/03 10:24:54;;;;;;;4.72;2.30;;;19.30;99.90;;;;;;5013450;28;20182;-91
2021/10/03 10:27:24;;;;;;;3.78;2.30;;;19.30;99.90;;;;;;4997239;28;20182;-92
2021/10/03 10:30:18;;;;;;;4.28;2.83;;;19.40;99.90;;;;;;5018177;28;20207;-92
2021/10/03 10:32:59;;;;;;;5.13;2.55;;;19.40;99.90;;;;;;5016722;28;20269;-93
2021/10/03 10:35:44;;;;;;;2.83;2.20;;;19.40;99.90;;;;;;5016557;28;20201;-91
2021/10/03 10:38:11;;;;;;;2.30;2.10;;;19.30;99.90;;;;;;5016240;28;20198;-92
2021/10/03 10:40:36;;;;;;;3.28;2.22;;;19.40;99.90;;;;;;5016201;28;20680;-92
2021/10/03 10:43:02;;;;;;;2.45;2.15;;;19.40;99.90;;;;;;5016351;28;20202;-93
2021/10/03 10:45:28;;;;;;;3.22;2.20;;;19.40;99.90;;;;;;5016396;28;20185;-92
2021/10/03 10:48:09;;;;;;;3.75;2.10;;;19.40;99.90;;;;;;5016425;28;20273;-93
2021/10/03 10:50:54;;;;;;;2.53;2.08;;;19.40;99.90;;;;;;5016202;28;20190;-93
2021/10/03 10:53:26;;;;;;;2.58;2.10;;;19.50;99.90;;;;;;5032864;28;20475;-92
2021/10/03 10:56:12;;;;;;;2.17;1.98;;;19.60;99.90;;;;;;5033082;28;20325;-92
2021/10/03 10:58:57;;;;;;;3.25;2.10;;;19.70;99.90;;;;;;5016530;28;20213;-93
2021/10/03 11:01:33;;;;;;;3.55;1.92;;;19.70;99.90;;;;;;5016416;28;20178;-93
2021/10/03 11:04:02;;;;;;;4.43;2.45;;;19.80;99.90;;;;;;5032968;28;20174;-92
2021/10/03 11:06:29;;;;;;;6.38;2.33;;;19.90;99.90;;;;;;5016427;28;20197;-91
2021/10/03 11:08:58;;;;;;;6.57;2.13;;;19.90;99.90;;;;;;5032712;28;20716;-91
2021/10/03 11:11:28;;;;;;;3.60;1.80;;;20.00;99.90;;;;;;5015837;28;20175;-92
2021/10/03 11:13:56;;;;;;;3.78;1.88;;;20.00;99.90;;;;;;5032530;28;20202;-94
2021/10/03 11:16:31;;;;;;;6.35;1.98;;;20.00;99.90;;;;;;5032668;28;20197;-92
2021/10/03 11:19:07;;;;;;;4.70;2.05;;;20.00;99.90;;;;;;5016160;28;20194;-93
2021/10/03 11:21:45;;;;;;;4.22;1.92;;;20.10;99.90;;;;;;5019527;28;20189;-94
2021/10/03 11:24:35;;;;;;;2.95;2.08;;;20.10;99.90;;;;;;5020056;28;20206;-92
2021/10/03 11:27:12;;;;;;;3.75;1.80;;;20.10;99.90;;;;;;5019307;28;20193;-94
2021/10/03 11:29:43;;;;;;;2.55;1.73;;;20.20;99.90;;;;;;5020184;28;20233;-94
2021/10/03 11:32:22;;;;;;;2.97;2.08;;;20.20;99.90;;;;;;5021649;28;20186;-93
2021/10/03 11:35:11;;;;;;;3.65;1.90;;;20.20;99.90;;;;;;5021061;28;20202;-92
2021/10/03 11:37:44;;;;;;;2.58;2.00;;;20.20;99.90;;;;;;5022872;28;20182;-92
2021/10/03 11:40:17;;;;;;;2.55;1.90;;;20.20;99.90;;;;;;5021213;28;20225;-93
2021/10/03 11:42:55;;;;;;;3.00;1.85;;;20.20;99.90;;;;;;5037641;28;20179;-92
2021/10/03 11:45:24;;;;;;;3.65;2.13;;;20.20;99.90;;;;;;5021202;28;20170;-91
2021/10/03 11:47:53;;;;;;;3.85;1.85;;;20.20;99.90;;;;;;5021167;28;20174;-93
2021/10/03 11:50:24;;;;;;;3.15;1.90;;;20.20;99.90;;;;;;5020630;28;20179;-93
2021/10/03 11:53:19;;;;;;;3.25;2.00;;;20.30;99.90;;;;;;5020715;28;20182;-94
2021/10/03 11:55:48;;;;;;;2.40;1.90;;;20.30;99.90;;;;;;5019303;28;20205;-93
2021/10/03 11:58:17;;;;;;;2.85;1.95;;;20.40;99.60;;;;;;5019204;28;20210;-92
2021/10/03 12:01:06;;;;;;;3.00;2.13;;;20.40;99.70;;;;;;5019255;28;20221;-92
2021/10/03 12:03:33;;;;;;;2.15;1.75;;;20.50;99.30;;;;;;5019140;28;20182;-94
2021/10/03 12:06:16;;;;;;;3.67;2.20;;;20.50;99.40;;;;;;5023383;28;20170;-92
2021/10/03 12:08:42;;;;;;;2.30;1.98;;;20.50;99.50;;;;;;5019038;28;20210;-94
2021/10/03 12:11:08;;;;;;;2.25;1.98;;;20.60;99.20;;;;;;5019011;28;20175;-93
2021/10/03 12:13:34;;;;;;;2.72;1.90;;;20.50;99.20;;;;;;5018891;28;20182;-93
2021/10/03 12:16:06;;;;;;;2.30;1.90;;;20.60;99.30;;;;;;5035413;28;20163;-93
2021/10/03 12:18:38;;;;;;;4.00;2.15;;;20.60;99.10;;;;;;5018970;28;20203;-93
2021/10/03 12:21:16;;;;;;;3.72;2.03;;;20.60;99.20;;;;;;5018558;28;20170;-94
2021/10/03 12:23:42;;;;;;;5.53;1.92;;;20.60;99.20;;;;;;5018921;28;20194;-93
2021/10/03 12:26:36;;;;;;;2.88;1.92;;;20.70;99.10;;;;;;5018976;28;20181;-93
2021/10/03 12:29:05;;;;;;;4.35;2.00;;;20.70;99.10;;;;;;5035113;28;20222;-92
2021/10/03 12:31:39;;;;;;;4.25;2.40;;;20.70;99.00;;;;;;5024056;28;20261;-93
2021/10/03 12:34:28;;;;;;;3.58;2.08;;;20.70;99.00;;;;;;5018527;28;20198;-92
2021/10/03 12:36:53;;;;;;;3.92;1.85;;;20.80;98.80;;;;;;5035055;28;20181;-93
2021/10/03 12:39:25;;;;;;;1.80;1.65;;;20.80;99.20;;;;;;5034247;28;20230;-92
2021/10/03 12:41:55;;;;;;;3.53;1.85;;;20.90;98.70;;;;;;5019276;28;20321;-95
2021/10/03 12:44:25;;;;;;;2.83;2.13;;;20.90;98.80;;;;;;5018484;28;20178;-91
2021/10/03 12:46:51;;;;;;;2.50;2.10;;;21.00;98.80;;;;;;5018357;28;20177;-92
2021/10/03 12:49:17;;;;;;;2.22;1.90;;;21.00;98.70;;;;;;5018232;28;20222;-94
2021/10/03 12:51:42;;;;;;;2.83;2.00;;;21.00;98.70;;;;;;5018164;28;20225;-92
2021/10/03 12:54:08;;;;;;;2.78;2.05;;;21.00;98.40;;;;;;5018501;28;20644;-94
2021/10/03 12:56:36;;;;;;;3.25;1.70;;;21.10;98.60;;;;;;5018461;28;20176;-94
2021/10/03 12:59:02;;;;;;;2.33;1.90;;;21.00;98.60;;;;;;5019759;28;20198;-93
2021/10/03 13:01:28;;;;;;;2.30;2.10;;;21.00;98.30;;;;;;5018074;28;20182;-92